Terminal Aerodrome Forecast
Issued by NWS

Current Version | Previous Version | Text Only | Print | Product List | Glossary Off
Versions: 1 2 3 4 5 6 7 8 9 10 11 12 13 14 15 16

000
FTUS41 KRNK 180226 AAA
TAFLWB
TAF AMD
KLWB 180226Z 1802/1824 26004KT P6SM OVC011 WS020/28035KT
      TEMPO 1803/1805 -FZRAPLSN OVC003
     FM180500 28009KT P6SM BKN015
     FM180900 30010KT P6SM SCT050
     FM181700 VRB03KT P6SM FEW250=

USA.gov is the U.S. government's official web portal to all federal, state and local government web resources and services.